createdAt,value
2022-12-11T00:05:52.063Z,54.80
2022-12-11T00:10:57.096Z,59.70
2022-12-11T00:16:01.085Z,57.88
2022-12-11T00:21:05.894Z,65.63
2022-12-11T00:26:13.565Z,55.58
2022-12-11T00:31:18.943Z,53.10
2022-12-11T00:36:24.580Z,52.53
2022-12-11T00:41:29.665Z,49.28
2022-12-11T00:46:33.465Z,44.72
2022-12-11T00:51:37.230Z,53.30
2022-12-11T00:56:42.323Z,50.40
2022-12-11T01:01:46.055Z,41.13
2022-12-11T01:06:49.791Z,49.92
2022-12-11T01:11:54.859Z,46.20
2022-12-11T01:16:58.679Z,45.92
2022-12-11T01:22:02.403Z,41.65
2022-12-11T01:27:07.521Z,38.70
2022-12-11T01:32:11.172Z,48.15
2022-12-11T01:37:14.886Z,39.40
2022-12-11T01:42:22.186Z,41.22
2022-12-11T01:47:25.897Z,47.88
2022-12-11T01:52:29.603Z,33.40
2022-12-11T01:57:34.667Z,46.28
2022-12-11T02:02:38.414Z,41.08
2022-12-11T02:07:46.281Z,35.72
2022-12-11T02:12:58.870Z,36.97
2022-12-11T02:18:13.821Z,33.38
2022-12-11T02:23:44.414Z,35.40
2022-12-11T02:28:52.236Z,30.80
2022-12-11T02:34:02.851Z,29.77
2022-12-11T02:39:08.578Z,31.13
2022-12-11T02:44:17.327Z,25.63
2022-12-11T02:49:22.625Z,25.33
2022-12-11T02:54:29.673Z,23.13
2022-12-11T02:59:38.653Z,22.60
2022-12-11T03:04:43.234Z,26.00
2022-12-11T03:09:49.001Z,26.70
2022-12-11T03:14:54.424Z,26.35
2022-12-11T03:20:06.872Z,28.65
2022-12-11T03:25:14.089Z,27.23
2022-12-11T03:30:21.542Z,24.15
2022-12-11T03:35:28.672Z,27.48
2022-12-11T03:40:35.619Z,25.08
2022-12-11T03:50:46.742Z,24.70
2022-12-11T03:55:52.092Z,23.23
2022-12-11T04:00:57.444Z,23.40
2022-12-11T04:06:01.077Z,18.13
2022-12-11T04:11:22.995Z,21.27
2022-12-11T04:16:28.007Z,19.48
2022-12-11T04:21:49.156Z,23.27
2022-12-11T04:26:52.770Z,21.92
2022-12-11T04:31:57.786Z,26.85
2022-12-11T04:37:01.524Z,25.02
2022-12-11T04:42:05.302Z,21.83
2022-12-11T04:47:10.319Z,21.75
2022-12-11T04:52:13.969Z,20.10
2022-12-11T04:57:17.614Z,21.77
2022-12-11T05:02:22.621Z,17.70
2022-12-11T05:07:26.874Z,17.05
2022-12-11T05:12:30.772Z,19.15
2022-12-11T05:17:35.876Z,18.40
2022-12-11T05:22:40.032Z,18.33
2022-12-11T05:27:43.743Z,18.52
2022-12-11T05:32:48.964Z,18.95
2022-12-11T05:37:52.682Z,17.52
2022-12-11T05:42:56.389Z,17.88
2022-12-11T05:48:01.475Z,17.63
2022-12-11T05:53:05.392Z,17.52
2022-12-11T05:58:09.024Z,19.02
2022-12-11T06:03:14.402Z,19.67
2022-12-11T06:08:18.344Z,16.98
2022-12-11T06:13:22.206Z,15.52
2022-12-11T06:18:27.229Z,18.42
2022-12-11T06:23:30.888Z,21.00
2022-12-11T06:28:34.587Z,15.23
2022-12-11T06:33:39.733Z,15.55
2022-12-11T06:38:43.983Z,17.55
2022-12-11T06:43:47.753Z,16.05
2022-12-11T06:48:53.373Z,15.32
2022-12-11T06:53:58.569Z,18.58
2022-12-11T06:59:07.571Z,16.08
2022-12-11T07:04:12.877Z,16.52
2022-12-11T07:09:16.585Z,19.70
2022-12-11T07:14:23.137Z,19.55
2022-12-11T07:19:28.415Z,23.85
2022-12-11T07:24:32.464Z,16.58
2022-12-11T07:29:36.190Z,15.75
2022-12-11T07:34:41.405Z,16.77
2022-12-11T07:39:45.042Z,25.25
2022-12-11T07:44:48.695Z,18.00
2022-12-11T07:49:53.715Z,18.63
2022-12-11T07:54:57.464Z,19.45
2022-12-11T08:00:01.508Z,18.15
2022-12-11T08:05:07.824Z,20.20
2022-12-11T08:10:11.708Z,18.83
2022-12-11T08:15:15.394Z,17.60
2022-12-11T08:20:20.568Z,24.48
2022-12-11T08:25:24.784Z,24.70
2022-12-11T08:30:28.595Z,16.60
2022-12-11T08:35:33.949Z,16.27
2022-12-11T08:40:40.277Z,16.92
2022-12-11T08:45:44.015Z,36.35
2022-12-11T08:50:49.023Z,19.63
2022-12-11T08:55:52.739Z,25.00
2022-12-11T09:00:56.815Z,22.25
2022-12-11T09:06:04.900Z,19.73
2022-12-11T09:11:11.075Z,26.13
2022-12-11T09:16:16.579Z,24.60
2022-12-11T09:21:23.316Z,29.02
2022-12-11T09:26:29.280Z,23.92
2022-12-11T09:31:34.690Z,22.73
2022-12-11T09:36:46.807Z,26.08
2022-12-11T09:42:00.827Z,28.15
2022-12-11T09:47:04.618Z,27.33
2022-12-11T09:52:15.149Z,25.08
2022-12-11T09:57:41.360Z,28.70
2022-12-11T10:03:23.021Z,33.45
2022-12-11T10:08:41.433Z,47.63
2022-12-11T10:14:30.033Z,54.63
2022-12-11T10:19:34.463Z,28.02
2022-12-11T10:30:15.643Z,29.65
2022-12-11T10:35:25.314Z,31.48
2022-12-11T10:40:32.472Z,30.00
2022-12-11T10:45:36.191Z,25.75
2022-12-11T10:50:41.387Z,30.60
2022-12-11T10:55:49.141Z,29.55
2022-12-11T11:01:05.928Z,32.47
2022-12-11T11:06:17.273Z,31.75
2022-12-11T11:11:28.834Z,30.35
2022-12-11T11:16:33.249Z,34.53
2022-12-11T11:21:37.304Z,26.77
2022-12-11T11:27:11.801Z,29.08
2022-12-11T11:32:18.466Z,28.55
2022-12-11T11:37:31.320Z,27.47
2022-12-11T11:42:44.362Z,25.27
2022-12-11T11:47:57.645Z,24.48
2022-12-11T11:53:06.826Z,26.83
2022-12-11T11:58:18.036Z,30.65
2022-12-11T12:03:25.324Z,25.23
2022-12-11T12:08:41.056Z,24.90
2022-12-11T12:13:55.534Z,23.00
2022-12-11T12:19:07.367Z,25.60
2022-12-11T12:24:21.752Z,23.35
2022-12-11T12:29:38.381Z,18.88
2022-12-11T12:34:53.895Z,23.48
2022-12-11T12:40:04.545Z,20.30
2022-12-11T12:45:22.955Z,19.90
2022-12-11T12:50:31.733Z,21.13
2022-12-11T12:55:36.962Z,16.98
2022-12-11T13:00:43.960Z,22.50
2022-12-11T13:11:06.094Z,18.98
2022-12-11T13:16:37.015Z,17.40
2022-12-11T13:21:40.969Z,22.05
2022-12-11T13:26:45.001Z,22.13
2022-12-11T13:31:58.949Z,20.10
2022-12-11T13:37:04.935Z,20.83
2022-12-11T13:42:22.365Z,18.20
2022-12-11T13:47:28.410Z,15.57
2022-12-11T13:52:32.710Z,19.17
2022-12-11T13:57:47.283Z,19.45
2022-12-11T14:02:54.315Z,22.38
2022-12-11T14:13:07.027Z,20.27
2022-12-11T14:18:18.969Z,21.73
2022-12-11T14:23:26.283Z,15.63
2022-12-11T14:28:37.029Z,17.35
2022-12-11T14:33:46.218Z,16.52
2022-12-11T14:38:55.439Z,16.60
2022-12-11T14:44:04.519Z,17.67
2022-12-11T14:49:18.897Z,17.27
2022-12-11T14:54:29.000Z,15.98
2022-12-11T14:59:36.173Z,13.30
2022-12-11T15:04:41.283Z,18.35
2022-12-11T15:09:47.911Z,16.42
2022-12-11T15:14:54.026Z,14.95
2022-12-11T15:20:06.472Z,17.17
2022-12-11T15:25:23.205Z,16.73
2022-12-11T15:30:29.947Z,13.32
2022-12-11T15:35:35.327Z,19.27
2022-12-11T15:40:40.421Z,12.95
2022-12-11T15:45:44.295Z,15.10
2022-12-11T15:50:49.555Z,15.70
2022-12-11T15:55:54.099Z,16.75
2022-12-11T16:00:58.478Z,16.10
2022-12-11T16:06:05.303Z,14.35
2022-12-11T16:11:09.110Z,15.95
2022-12-11T16:16:12.772Z,17.15
2022-12-11T16:21:21.351Z,14.13
2022-12-11T16:26:25.571Z,18.33
2022-12-11T16:31:29.953Z,13.18
2022-12-11T16:36:35.318Z,15.70
2022-12-11T16:41:39.088Z,23.95
2022-12-11T16:46:43.245Z,14.45
2022-12-11T16:51:49.343Z,12.70
2022-12-11T16:56:53.285Z,17.40
2022-12-11T17:01:57.372Z,16.05
2022-12-11T17:07:02.521Z,22.08
2022-12-11T17:12:07.105Z,14.02
2022-12-11T17:17:11.130Z,22.23
2022-12-11T17:22:16.717Z,19.10
2022-12-11T17:27:20.436Z,16.40
2022-12-11T17:32:24.171Z,16.85
2022-12-11T17:37:29.484Z,21.00
2022-12-11T17:42:33.310Z,19.48
2022-12-11T17:47:36.959Z,15.52
2022-12-11T17:52:44.315Z,17.13
2022-12-11T17:57:49.116Z,18.08
2022-12-11T18:02:52.886Z,20.73
2022-12-11T18:07:58.361Z,28.77
2022-12-11T18:13:02.624Z,27.08
2022-12-11T18:18:07.200Z,18.67
2022-12-11T18:23:12.316Z,21.30
2022-12-11T18:28:16.118Z,20.40
2022-12-11T18:33:19.764Z,24.95
2022-12-11T18:38:25.307Z,20.10
2022-12-11T18:43:29.033Z,16.23
2022-12-11T18:48:32.851Z,19.15
2022-12-11T18:53:40.310Z,13.57
2022-12-11T18:58:44.556Z,17.15
2022-12-11T19:03:49.194Z,21.15
2022-12-11T19:08:54.566Z,21.90
2022-12-11T19:13:59.047Z,16.88
2022-12-11T19:19:04.962Z,31.98
2022-12-11T19:24:13.569Z,33.13
2022-12-11T19:29:22.474Z,20.95
2022-12-11T19:34:26.753Z,24.65
2022-12-11T19:39:31.753Z,18.88
2022-12-11T19:44:38.007Z,16.02
2022-12-11T19:49:41.776Z,15.97
2022-12-11T19:54:46.977Z,16.42
2022-12-11T19:59:56.794Z,16.33
2022-12-11T20:05:01.155Z,16.40
2022-12-11T20:10:08.629Z,18.42
2022-12-11T20:15:12.643Z,17.17
2022-12-11T20:20:16.386Z,20.48
2022-12-11T20:25:21.537Z,18.98
2022-12-11T20:30:25.907Z,15.48
2022-12-11T20:35:29.651Z,15.38
2022-12-11T20:40:34.865Z,22.17
2022-12-11T20:45:38.755Z,21.73
2022-12-11T20:50:42.561Z,17.15
2022-12-11T20:55:47.802Z,22.95
2022-12-11T21:00:51.684Z,13.77
2022-12-11T21:05:55.698Z,16.85
2022-12-11T21:11:00.808Z,16.25
2022-12-11T21:16:06.424Z,19.90
2022-12-11T21:21:10.213Z,20.80
2022-12-11T21:26:15.840Z,19.10
2022-12-11T21:31:21.104Z,24.35
2022-12-11T21:36:25.870Z,20.77
2022-12-11T21:41:31.242Z,20.13
2022-12-11T21:46:35.070Z,19.30
2022-12-11T21:51:46.839Z,16.95
2022-12-11T21:56:54.282Z,19.10
2022-12-11T22:01:58.053Z,21.13
2022-12-11T22:07:02.078Z,21.38
2022-12-11T22:12:07.683Z,17.58
2022-12-11T22:17:11.498Z,20.55
2022-12-11T22:22:15.676Z,23.02
2022-12-11T22:27:23.892Z,17.83
2022-12-11T22:32:28.287Z,21.35
2022-12-11T22:37:32.088Z,22.42
2022-12-11T22:42:37.190Z,24.05
2022-12-11T22:47:40.911Z,24.30
2022-12-11T22:52:45.432Z,21.02
2022-12-11T22:57:50.544Z,24.52
2022-12-11T23:02:55.769Z,19.25
2022-12-11T23:07:59.750Z,23.95
2022-12-11T23:13:05.427Z,22.45
2022-12-11T23:18:09.576Z,16.95
2022-12-11T23:23:13.460Z,19.75
2022-12-11T23:28:33.789Z,22.02
2022-12-11T23:33:38.150Z,26.75
2022-12-11T23:38:42.366Z,22.63
2022-12-11T23:43:47.464Z,21.40
2022-12-11T23:48:52.082Z,22.33
2022-12-11T23:53:56.528Z,20.75
2022-12-11T23:59:01.870Z,24.35
